createdAt,value
2023-01-09T00:01:24.785Z,9.65
2023-01-09T00:03:27.743Z,9.59
2023-01-09T00:05:32.110Z,9.61
2023-01-09T00:07:35.273Z,9.48
2023-01-09T00:09:38.156Z,9.30
2023-01-09T00:11:41.078Z,9.45
2023-01-09T00:13:44.190Z,9.43
2023-01-09T00:15:48.960Z,9.45
2023-01-09T00:17:51.890Z,9.15
2023-01-09T00:19:55.390Z,9.32
2023-01-09T00:21:59.676Z,9.07
2023-01-09T00:24:04.776Z,9.13
2023-01-09T00:26:12.120Z,9.23
2023-01-09T00:28:15.028Z,9.11
2023-01-09T00:30:18.687Z,9.12
2023-01-09T00:32:22.017Z,9.05
2023-01-09T00:34:25.691Z,9.09
2023-01-09T00:36:29.143Z,9.00
2023-01-09T00:38:33.626Z,9.07
2023-01-09T00:40:36.729Z,8.99
2023-01-09T00:42:39.768Z,8.84
2023-01-09T00:44:45.479Z,8.78
2023-01-09T00:46:52.508Z,8.80
2023-01-09T00:48:55.311Z,8.86
2023-01-09T00:51:00.306Z,8.73
2023-01-09T00:53:07.561Z,8.66
2023-01-09T00:55:12.350Z,8.64
2023-01-09T00:57:15.927Z,8.61
2023-01-09T00:59:18.944Z,8.69
2023-01-09T01:01:23.148Z,8.65
2023-01-09T01:03:26.248Z,8.53
2023-01-09T01:05:46.831Z,8.47
2023-01-09T01:07:49.129Z,8.52
2023-01-09T01:09:52.078Z,8.42
2023-01-09T01:11:56.426Z,8.41
2023-01-09T01:13:59.305Z,8.43
2023-01-09T01:16:05.252Z,8.44
2023-01-09T01:18:08.164Z,8.41
2023-01-09T01:20:13.630Z,8.36
2023-01-09T01:22:16.729Z,8.43
2023-01-09T01:24:20.109Z,8.33
2023-01-09T01:26:23.084Z,8.29
2023-01-09T01:28:27.367Z,8.39
2023-01-09T01:30:31.490Z,8.33
2023-01-09T01:32:34.392Z,8.34
2023-01-09T01:34:37.765Z,8.29
2023-01-09T01:36:40.782Z,8.28
2023-01-09T01:38:43.661Z,8.19
2023-01-09T01:40:46.654Z,8.22
2023-01-09T01:42:50.844Z,8.22
2023-01-09T01:45:12.623Z,8.29
2023-01-09T01:47:15.915Z,8.22
2023-01-09T01:49:20.502Z,8.26
2023-01-09T01:51:25.060Z,8.25
2023-01-09T01:53:32.768Z,8.29
2023-01-09T01:55:36.533Z,8.28
2023-01-09T01:57:42.572Z,8.35
2023-01-09T01:59:50.521Z,8.26
2023-01-09T02:01:57.564Z,8.27
2023-01-09T02:04:02.404Z,8.32
2023-01-09T02:06:05.674Z,8.34
2023-01-09T02:08:09.614Z,8.38
2023-01-09T02:10:12.561Z,8.40
2023-01-09T02:12:17.844Z,8.39
2023-01-09T02:14:21.996Z,8.43
2023-01-09T02:16:51.923Z,8.48
2023-01-09T02:19:02.362Z,8.38
2023-01-09T02:21:09.133Z,8.41
2023-01-09T02:23:43.520Z,8.43
2023-01-09T02:26:04.636Z,8.41
2023-01-09T02:28:26.357Z,8.34
2023-01-09T02:30:39.033Z,8.48
2023-01-09T02:32:47.956Z,8.43
2023-01-09T02:34:59.177Z,8.45
2023-01-09T02:37:06.176Z,8.48
2023-01-09T02:39:23.525Z,8.51
2023-01-09T02:41:30.917Z,8.38
2023-01-09T02:43:33.838Z,8.37
2023-01-09T02:45:38.682Z,8.43
2023-01-09T02:47:43.793Z,8.47
2023-01-09T02:49:48.748Z,8.54
2023-01-09T02:51:53.340Z,8.46
2023-01-09T02:54:17.629Z,8.48
2023-01-09T02:56:27.997Z,8.40
2023-01-09T02:58:42.251Z,8.49
2023-01-09T03:00:53.382Z,8.42
2023-01-09T03:02:59.347Z,8.36
2023-01-09T03:05:08.679Z,8.32
2023-01-09T03:07:16.760Z,8.37
2023-01-09T03:09:22.410Z,8.34
2023-01-09T03:11:26.298Z,8.24
2023-01-09T03:13:33.491Z,8.35
2023-01-09T03:15:38.862Z,8.35
2023-01-09T03:17:45.228Z,8.27
2023-01-09T03:19:48.196Z,8.27
2023-01-09T03:21:51.496Z,8.20
2023-01-09T03:23:56.183Z,8.27
2023-01-09T03:25:59.224Z,8.01
2023-01-09T03:28:03.793Z,8.12
2023-01-09T03:30:07.945Z,8.20
2023-01-09T03:32:11.135Z,8.21
2023-01-09T03:34:15.318Z,8.11
2023-01-09T03:36:19.460Z,8.15
2023-01-09T03:38:22.349Z,8.04
2023-01-09T03:40:25.610Z,8.11
2023-01-09T03:42:28.573Z,8.29
2023-01-09T03:44:31.492Z,8.17
2023-01-09T03:46:34.408Z,8.12
2023-01-09T03:48:37.282Z,8.25
2023-01-09T03:50:42.586Z,8.19
2023-01-09T03:52:45.415Z,8.35
2023-01-09T03:54:48.277Z,8.35
2023-01-09T03:56:51.401Z,8.34
2023-01-09T03:58:54.355Z,8.34
2023-01-09T04:00:59.640Z,8.34
2023-01-09T04:03:02.632Z,8.38
2023-01-09T04:05:06.366Z,8.41
2023-01-09T04:07:10.964Z,8.35
2023-01-09T04:09:13.818Z,8.42
2023-01-09T04:11:18.162Z,8.24
2023-01-09T04:13:21.448Z,8.22
2023-01-09T04:15:24.704Z,8.37
2023-01-09T04:17:27.588Z,8.37
2023-01-09T04:19:30.744Z,8.37
2023-01-09T04:21:33.837Z,8.35
2023-01-09T04:23:38.115Z,8.34
2023-01-09T04:25:41.053Z,8.24
2023-01-09T04:27:44.034Z,8.40
2023-01-09T04:29:47.083Z,8.41
2023-01-09T04:31:50.405Z,8.20
2023-01-09T04:33:53.318Z,8.34
2023-01-09T04:35:56.333Z,8.30
2023-01-09T04:38:00.708Z,8.23
2023-01-09T04:40:08.122Z,8.26
2023-01-09T04:42:11.015Z,8.36
2023-01-09T04:44:13.962Z,8.27
2023-01-09T04:46:17.481Z,8.27
2023-01-09T04:48:20.360Z,8.20
2023-01-09T04:50:23.170Z,8.23
2023-01-09T04:52:25.977Z,8.27
2023-01-09T04:54:28.854Z,8.33
2023-01-09T04:56:33.120Z,8.36
2023-01-09T04:58:36.048Z,8.23
2023-01-09T05:00:38.960Z,8.06
2023-01-09T05:02:42.080Z,8.13
2023-01-09T05:04:44.970Z,8.19
2023-01-09T05:06:47.746Z,8.08
2023-01-09T05:08:50.795Z,8.05
2023-01-09T05:10:53.633Z,8.10
2023-01-09T05:12:57.903Z,7.92
2023-01-09T05:15:00.798Z,7.91
2023-01-09T05:17:03.683Z,7.93
2023-01-09T05:19:06.529Z,7.93
2023-01-09T05:21:09.393Z,7.87
2023-01-09T05:23:12.336Z,7.87
2023-01-09T05:25:15.308Z,7.84
2023-01-09T05:27:18.218Z,7.73
2023-01-09T05:29:23.073Z,7.85
2023-01-09T05:31:27.653Z,7.70
2023-01-09T05:33:30.777Z,7.74
2023-01-09T05:35:33.645Z,7.73
2023-01-09T05:37:36.505Z,7.66
2023-01-09T05:39:39.382Z,7.72
2023-01-09T05:41:42.279Z,7.58
2023-01-09T05:43:45.750Z,7.57
2023-01-09T05:45:50.094Z,7.56
2023-01-09T05:47:53.012Z,7.53
2023-01-09T05:49:56.437Z,7.60
2023-01-09T05:51:59.287Z,7.53
2023-01-09T05:54:02.863Z,7.50
2023-01-09T05:56:06.009Z,7.61
2023-01-09T05:58:09.139Z,7.54
2023-01-09T06:00:13.174Z,7.58
2023-01-09T06:02:17.436Z,7.76
2023-01-09T06:04:20.423Z,7.74
2023-01-09T06:06:24.257Z,7.69
2023-01-09T06:08:27.178Z,7.85
2023-01-09T06:10:30.071Z,7.84
2023-01-09T06:12:33.024Z,7.91
2023-01-09T06:14:36.801Z,7.77
2023-01-09T06:16:39.736Z,7.86
2023-01-09T06:18:43.960Z,7.92
2023-01-09T06:20:46.940Z,8.00
2023-01-09T06:22:52.047Z,7.97
2023-01-09T06:24:55.261Z,7.98
2023-01-09T06:26:58.221Z,7.88
2023-01-09T06:29:02.325Z,7.99
2023-01-09T06:31:06.116Z,7.87
2023-01-09T06:33:09.209Z,7.92
2023-01-09T06:35:13.947Z,7.96
2023-01-09T06:37:16.921Z,7.93
2023-01-09T06:39:20.037Z,7.90
2023-01-09T06:41:22.886Z,7.89
2023-01-09T06:43:25.861Z,7.88
2023-01-09T06:45:28.878Z,7.90
2023-01-09T06:47:31.697Z,7.83
2023-01-09T06:49:34.539Z,7.79
2023-01-09T06:51:39.805Z,7.90
2023-01-09T06:53:42.748Z,7.84
2023-01-09T06:55:45.977Z,7.88
2023-01-09T06:57:48.773Z,7.92
2023-01-09T06:59:51.678Z,7.78
2023-01-09T07:01:54.977Z,7.73
2023-01-09T07:03:57.996Z,7.69
2023-01-09T07:06:00.877Z,7.76
2023-01-09T07:08:05.667Z,7.81
2023-01-09T07:10:11.115Z,7.82
2023-01-09T07:12:15.009Z,7.72
2023-01-09T07:14:18.353Z,7.73
2023-01-09T07:16:21.378Z,7.60
2023-01-09T07:18:24.534Z,7.69
2023-01-09T07:20:27.686Z,7.58
2023-01-09T07:22:30.711Z,7.50
2023-01-09T07:24:34.944Z,7.45
2023-01-09T07:26:38.194Z,7.43
2023-01-09T07:28:41.181Z,7.42
2023-01-09T07:30:44.149Z,7.42
2023-01-09T07:32:47.198Z,7.41
2023-01-09T07:34:51.549Z,7.45
2023-01-09T07:36:54.988Z,7.55
2023-01-09T07:38:58.260Z,7.41
2023-01-09T07:41:02.532Z,7.57
2023-01-09T07:43:05.450Z,7.61
2023-01-09T07:45:09.433Z,7.50
2023-01-09T07:47:12.425Z,7.62
2023-01-09T07:49:15.358Z,7.51
2023-01-09T07:51:18.257Z,7.48
2023-01-09T07:53:21.330Z,7.55
2023-01-09T07:55:24.248Z,7.56
2023-01-09T07:57:29.853Z,7.66
2023-01-09T07:59:32.783Z,7.61
2023-01-09T08:01:35.946Z,7.46
2023-01-09T08:03:38.951Z,7.57
2023-01-09T08:05:42.024Z,7.69
2023-01-09T08:07:44.955Z,7.72
2023-01-09T08:09:47.994Z,7.69
2023-01-09T08:11:51.987Z,7.79
2023-01-09T08:13:56.244Z,7.66
2023-01-09T08:15:59.102Z,7.87
2023-01-09T08:18:02.186Z,7.61
2023-01-09T08:20:05.676Z,7.70
2023-01-09T08:22:08.535Z,7.89
2023-01-09T08:24:11.469Z,7.82
2023-01-09T08:26:14.365Z,7.82
2023-01-09T08:28:17.984Z,7.77
2023-01-09T08:30:22.417Z,7.75
2023-01-09T08:32:25.851Z,7.78
2023-01-09T08:34:28.950Z,7.75
2023-01-09T08:36:31.984Z,7.85
2023-01-09T08:38:35.055Z,7.87
2023-01-09T08:40:38.363Z,7.94
2023-01-09T08:42:59.243Z,7.85
2023-01-09T08:45:20.099Z,8.01
2023-01-09T08:47:25.627Z,8.02
2023-01-09T08:49:28.467Z,7.92
2023-01-09T08:51:31.544Z,7.79
2023-01-09T08:53:35.202Z,7.80
2023-01-09T08:55:38.103Z,7.76
2023-01-09T08:57:48.761Z,7.84
2023-01-09T08:59:51.856Z,7.98
2023-01-09T09:01:54.821Z,7.90
2023-01-09T09:03:59.410Z,7.87
2023-01-09T09:06:03.062Z,7.94
2023-01-09T09:08:07.161Z,8.09
2023-01-09T09:10:11.183Z,8.07
2023-01-09T09:12:13.996Z,8.12
2023-01-09T09:14:34.689Z,7.90
2023-01-09T09:16:37.670Z,7.88
2023-01-09T09:18:40.762Z,7.94
2023-01-09T09:20:45.606Z,7.83
2023-01-09T09:22:49.192Z,7.85
2023-01-09T09:24:52.198Z,7.92
2023-01-09T09:26:55.148Z,8.09
2023-01-09T09:28:58.186Z,8.09
2023-01-09T09:31:01.117Z,8.16
2023-01-09T09:33:05.145Z,8.16
2023-01-09T09:35:08.760Z,8.28
2023-01-09T09:37:13.169Z,8.21
2023-01-09T09:39:16.121Z,8.15
2023-01-09T09:41:58.875Z,8.09
2023-01-09T09:44:30.674Z,8.23
2023-01-09T09:46:41.355Z,8.18
2023-01-09T09:48:48.486Z,8.26
2023-01-09T09:51:16.112Z,8.37
2023-01-09T09:53:24.672Z,8.39
2023-01-09T09:55:31.627Z,8.45
2023-01-09T09:57:38.103Z,8.46
2023-01-09T09:59:42.373Z,8.28
2023-01-09T10:01:52.185Z,8.44
2023-01-09T10:03:58.211Z,8.52
2023-01-09T10:06:02.026Z,8.49
2023-01-09T10:08:15.780Z,8.49
2023-01-09T10:10:28.329Z,8.35
2023-01-09T10:12:36.409Z,8.40
2023-01-09T10:14:40.155Z,8.46
2023-01-09T10:16:53.463Z,8.48
2023-01-09T10:19:07.374Z,8.46
2023-01-09T10:21:13.549Z,8.33
2023-01-09T10:23:26.623Z,8.35
2023-01-09T10:25:35.757Z,8.25
2023-01-09T10:27:51.896Z,8.18
2023-01-09T10:30:02.505Z,8.13
2023-01-09T10:32:21.411Z,8.30
2023-01-09T10:34:34.852Z,8.30
2023-01-09T10:36:54.764Z,8.52
2023-01-09T10:39:01.688Z,8.46
2023-01-09T10:41:09.067Z,8.54
2023-01-09T10:43:16.634Z,8.63
2023-01-09T10:45:23.840Z,8.64
2023-01-09T10:47:29.733Z,8.71
2023-01-09T10:49:32.634Z,8.78
2023-01-09T10:51:38.517Z,8.86
2023-01-09T10:53:44.113Z,8.83
2023-01-09T10:55:48.173Z,8.81
2023-01-09T10:57:55.561Z,8.97
2023-01-09T10:59:58.472Z,8.91
2023-01-09T11:02:03.234Z,8.85
2023-01-09T11:04:18.613Z,8.83
2023-01-09T11:06:25.706Z,8.82
2023-01-09T11:08:31.937Z,8.89
2023-01-09T11:10:49.570Z,8.96
2023-01-09T11:13:15.060Z,8.92
2023-01-09T11:15:30.034Z,9.01
2023-01-09T11:17:32.863Z,8.84
2023-01-09T11:19:35.778Z,8.88
2023-01-09T11:21:41.891Z,8.84
2023-01-09T11:23:44.856Z,8.91
2023-01-09T11:25:53.917Z,9.00
2023-01-09T11:28:08.696Z,8.90
2023-01-09T11:30:22.506Z,8.97
2023-01-09T11:32:26.068Z,9.04
2023-01-09T11:34:31.637Z,8.98
2023-01-09T11:36:34.631Z,9.07
2023-01-09T11:38:50.076Z,8.98
2023-01-09T11:40:54.073Z,8.92
2023-01-09T11:43:10.066Z,9.04
2023-01-09T11:45:17.297Z,9.07
2023-01-09T11:47:26.791Z,8.94
2023-01-09T11:49:31.129Z,9.04
2023-01-09T11:51:36.865Z,9.06
2023-01-09T11:53:48.001Z,9.13
2023-01-09T11:55:57.748Z,9.11
2023-01-09T11:58:00.730Z,9.06
2023-01-09T12:00:25.024Z,9.15
2023-01-09T12:02:42.593Z,9.13
2023-01-09T12:04:51.606Z,9.29
2023-01-09T12:07:07.445Z,9.32
2023-01-09T12:09:14.618Z,9.25
2023-01-09T12:11:23.887Z,9.18
2023-01-09T12:13:38.414Z,9.34
2023-01-09T12:15:50.255Z,9.45
2023-01-09T12:18:04.394Z,9.32
2023-01-09T12:20:28.989Z,9.33
2023-01-09T12:22:36.580Z,9.25
2023-01-09T12:25:01.750Z,9.35
2023-01-09T12:27:17.280Z,9.31
2023-01-09T12:29:38.179Z,9.37
2023-01-09T12:31:58.217Z,9.43
2023-01-09T12:34:11.621Z,9.43
2023-01-09T12:36:19.355Z,9.36
2023-01-09T12:38:40.728Z,9.10
2023-01-09T12:41:00.896Z,9.25
2023-01-09T12:43:12.903Z,9.10
2023-01-09T12:45:35.932Z,9.31
2023-01-09T12:47:45.838Z,9.00
2023-01-09T12:49:56.087Z,9.00
2023-01-09T12:52:05.443Z,9.05
2023-01-09T12:54:11.997Z,9.18
2023-01-09T12:56:18.014Z,9.18
2023-01-09T12:58:31.769Z,9.33
2023-01-09T13:00:38.949Z,9.28
2023-01-09T13:02:46.263Z,9.22
2023-01-09T13:04:54.441Z,9.24
2023-01-09T13:07:01.032Z,9.28
2023-01-09T13:09:13.636Z,9.21
2023-01-09T13:11:21.262Z,9.26
2023-01-09T13:13:27.637Z,9.21
2023-01-09T13:15:33.176Z,9.25
2023-01-09T13:17:42.132Z,9.18
2023-01-09T13:19:46.505Z,9.26
2023-01-09T13:21:49.528Z,9.22
2023-01-09T13:23:55.321Z,9.11
2023-01-09T13:25:59.537Z,8.93
2023-01-09T13:28:08.060Z,8.82
2023-01-09T13:30:21.150Z,8.76
2023-01-09T13:32:36.383Z,8.66
2023-01-09T13:34:39.666Z,8.65
2023-01-09T13:36:50.080Z,8.67
2023-01-09T13:38:53.191Z,8.67
2023-01-09T13:41:29.240Z,8.68
2023-01-09T13:43:54.733Z,8.79
2023-01-09T13:45:57.736Z,8.57
2023-01-09T13:48:23.803Z,8.66
2023-01-09T13:50:28.631Z,8.70
2023-01-09T13:52:36.718Z,8.64
2023-01-09T13:55:02.679Z,8.36
2023-01-09T13:57:28.670Z,8.49
2023-01-09T13:59:31.606Z,8.49
2023-01-09T14:01:42.868Z,8.57
2023-01-09T14:03:45.738Z,8.48
2023-01-09T14:06:11.869Z,8.62
2023-01-09T14:08:19.600Z,8.45
2023-01-09T14:10:25.439Z,8.23
2023-01-09T14:12:30.284Z,8.42
2023-01-09T14:14:34.780Z,8.30
2023-01-09T14:16:39.206Z,8.37
2023-01-09T14:18:48.784Z,8.37
2023-01-09T14:20:55.487Z,8.21
2023-01-09T14:25:26.485Z,8.13
2023-01-09T14:27:51.890Z,8.30
2023-01-09T14:30:18.358Z,8.29
2023-01-09T14:32:46.621Z,8.49
2023-01-09T14:34:49.940Z,8.51
2023-01-09T14:36:54.326Z,8.43
2023-01-09T14:39:01.194Z,8.37
2023-01-09T14:41:10.612Z,8.26
2023-01-09T14:43:17.816Z,8.24
2023-01-09T14:45:23.871Z,8.36
2023-01-09T14:47:35.573Z,8.27
2023-01-09T14:49:42.065Z,8.34
2023-01-09T14:51:47.237Z,8.38
2023-01-09T14:53:52.009Z,8.28
2023-01-09T14:55:57.662Z,8.31
2023-01-09T14:58:13.137Z,8.25
2023-01-09T15:00:19.667Z,8.19
2023-01-09T15:02:22.956Z,8.23
2023-01-09T15:04:35.040Z,8.29
2023-01-09T15:06:42.365Z,8.25
2023-01-09T15:08:46.160Z,8.24
2023-01-09T15:10:50.689Z,8.13
2023-01-09T15:12:56.051Z,8.32
2023-01-09T15:15:02.857Z,8.16
2023-01-09T15:17:05.881Z,8.16
2023-01-09T15:19:09.862Z,8.32
2023-01-09T15:21:19.452Z,8.28
2023-01-09T15:23:24.774Z,8.33
2023-01-09T15:25:41.018Z,8.24
2023-01-09T15:27:49.157Z,8.23
2023-01-09T15:29:52.450Z,8.10
2023-01-09T15:31:59.994Z,8.12
2023-01-09T15:34:06.592Z,8.06
2023-01-09T15:36:14.207Z,8.19
2023-01-09T15:38:21.655Z,8.10
2023-01-09T15:40:27.396Z,8.23
2023-01-09T15:42:49.961Z,8.13
2023-01-09T15:44:53.820Z,8.20
2023-01-09T15:47:02.361Z,8.29
2023-01-09T15:49:05.467Z,8.23
2023-01-09T15:51:11.922Z,8.25
2023-01-09T15:53:15.793Z,8.32
2023-01-09T15:55:26.733Z,8.32
2023-01-09T15:57:34.019Z,8.43
2023-01-09T15:59:38.548Z,8.40
2023-01-09T16:01:42.291Z,8.37
2023-01-09T16:03:49.026Z,8.35
2023-01-09T16:05:57.999Z,8.29
2023-01-09T16:08:01.940Z,8.23
2023-01-09T16:10:05.488Z,8.21
2023-01-09T16:12:19.344Z,8.19
2023-01-09T16:14:27.415Z,8.39
2023-01-09T16:16:33.057Z,8.19
2023-01-09T16:18:38.395Z,8.28
2023-01-09T16:20:43.321Z,8.36
2023-01-09T16:22:53.615Z,8.21
2023-01-09T16:24:58.429Z,8.16
2023-01-09T16:27:27.244Z,8.07
2023-01-09T16:29:37.058Z,8.07
2023-01-09T16:31:39.974Z,8.09
2023-01-09T16:33:48.520Z,8.13
2023-01-09T16:35:53.610Z,8.09
2023-01-09T16:37:56.456Z,8.06
2023-01-09T16:40:24.129Z,8.04
2023-01-09T16:42:44.733Z,8.11
2023-01-09T16:44:47.565Z,8.15
2023-01-09T16:46:50.450Z,8.03
2023-01-09T16:48:55.236Z,8.05
2023-01-09T16:50:59.554Z,8.02
2023-01-09T16:53:04.496Z,7.94
2023-01-09T16:55:07.811Z,7.86
2023-01-09T16:57:17.902Z,7.89
2023-01-09T16:59:24.510Z,7.90
2023-01-09T17:01:28.064Z,7.97
2023-01-09T17:03:30.934Z,7.99
2023-01-09T17:05:33.829Z,7.99
2023-01-09T17:07:38.818Z,8.09
2023-01-09T17:09:41.723Z,7.91
2023-01-09T17:11:45.206Z,8.03
2023-01-09T17:13:48.484Z,8.12
2023-01-09T17:15:51.857Z,7.98
2023-01-09T17:17:54.754Z,8.12
2023-01-09T17:19:57.593Z,8.01
2023-01-09T17:22:00.519Z,7.88
2023-01-09T17:24:22.741Z,8.08
2023-01-09T17:26:42.919Z,7.95
2023-01-09T17:28:49.250Z,7.99
2023-01-09T17:30:52.141Z,7.85
2023-01-09T17:32:54.993Z,7.83
2023-01-09T17:34:57.861Z,7.72
2023-01-09T17:37:02.542Z,7.89
2023-01-09T17:39:08.429Z,7.91
2023-01-09T17:41:12.984Z,7.83
2023-01-09T17:43:16.815Z,7.88
2023-01-09T17:45:19.967Z,7.87
2023-01-09T17:47:23.124Z,7.75
2023-01-09T17:49:27.207Z,7.75
2023-01-09T17:51:30.450Z,7.84
2023-01-09T17:53:34.004Z,7.78
2023-01-09T17:55:38.628Z,7.87
2023-01-09T17:57:42.231Z,7.78
2023-01-09T17:59:45.640Z,7.77
2023-01-09T18:01:48.672Z,7.85
2023-01-09T18:03:51.607Z,7.87
2023-01-09T18:05:54.663Z,7.92
2023-01-09T18:07:57.847Z,7.95
2023-01-09T18:10:00.689Z,7.93
2023-01-09T18:12:05.150Z,7.79
2023-01-09T18:14:08.199Z,7.92
2023-01-09T18:16:11.540Z,7.76
2023-01-09T18:18:16.115Z,7.75
2023-01-09T18:20:19.424Z,8.00
2023-01-09T18:22:22.302Z,8.04
2023-01-09T18:24:25.266Z,8.02
2023-01-09T18:26:28.483Z,8.12
2023-01-09T18:28:32.978Z,8.01
2023-01-09T18:30:36.238Z,8.05
2023-01-09T18:32:39.165Z,7.99
2023-01-09T18:34:42.025Z,8.04
2023-01-09T18:36:44.907Z,8.11
2023-01-09T18:38:51.161Z,8.17
2023-01-09T18:40:59.660Z,8.06
2023-01-09T18:43:05.041Z,8.12
2023-01-09T18:45:11.163Z,8.06
2023-01-09T18:47:14.195Z,7.96
2023-01-09T18:49:17.379Z,8.06
2023-01-09T18:51:20.528Z,7.81
2023-01-09T18:53:23.396Z,7.76
2023-01-09T18:55:26.585Z,7.74
2023-01-09T18:57:29.558Z,7.77
2023-01-09T18:59:32.606Z,7.58
2023-01-09T19:01:37.422Z,7.61
2023-01-09T19:03:40.308Z,7.59
2023-01-09T19:05:43.207Z,7.75
2023-01-09T19:07:46.085Z,7.67
2023-01-09T19:09:48.927Z,7.58
2023-01-09T19:11:51.788Z,7.58
2023-01-09T19:13:54.969Z,7.58
2023-01-09T19:15:59.004Z,7.68
2023-01-09T19:18:03.341Z,7.48
2023-01-09T19:20:07.837Z,7.52
2023-01-09T19:22:10.714Z,7.68
2023-01-09T19:24:13.620Z,7.53
2023-01-09T19:26:18.381Z,7.42
2023-01-09T19:28:21.767Z,7.52
2023-01-09T19:30:25.109Z,7.60
2023-01-09T19:32:27.936Z,7.44
2023-01-09T19:34:32.497Z,7.48
2023-01-09T19:36:35.513Z,7.53
2023-01-09T19:38:38.789Z,7.50
2023-01-09T19:40:41.657Z,7.47
2023-01-09T19:42:44.472Z,7.44
2023-01-09T19:44:47.351Z,7.36
2023-01-09T19:46:50.225Z,7.51
2023-01-09T19:48:53.789Z,7.41
2023-01-09T19:51:03.161Z,7.30
2023-01-09T19:53:06.159Z,7.40
2023-01-09T19:55:11.085Z,7.42
2023-01-09T19:57:14.084Z,7.36
2023-01-09T19:59:16.948Z,7.43
2023-01-09T20:01:22.571Z,7.47
2023-01-09T20:03:26.492Z,7.37
2023-01-09T20:05:29.298Z,7.49
2023-01-09T20:07:33.816Z,7.46
2023-01-09T20:09:36.922Z,7.54
2023-01-09T20:11:41.620Z,7.42
2023-01-09T20:13:45.288Z,7.39
2023-01-09T20:15:48.172Z,7.27
2023-01-09T20:17:51.147Z,7.52
2023-01-09T20:19:54.050Z,7.41
2023-01-09T20:21:56.966Z,7.41
2023-01-09T20:24:05.312Z,7.36
2023-01-09T20:26:08.349Z,7.53
2023-01-09T20:28:11.390Z,7.44
2023-01-09T20:30:15.513Z,7.55
2023-01-09T20:32:18.779Z,7.71
2023-01-09T20:34:21.636Z,7.75
2023-01-09T20:36:27.568Z,7.68
2023-01-09T20:38:30.446Z,7.80
2023-01-09T20:40:36.027Z,7.81
2023-01-09T20:42:38.898Z,7.81
2023-01-09T20:44:41.738Z,7.83
2023-01-09T20:46:47.954Z,7.74
2023-01-09T20:48:51.414Z,7.76
2023-01-09T20:50:54.503Z,7.63
2023-01-09T20:52:57.507Z,7.60
2023-01-09T20:55:00.360Z,7.76
2023-01-09T20:57:04.692Z,7.72
2023-01-09T20:59:12.045Z,7.81
2023-01-09T21:01:15.417Z,7.93
2023-01-09T21:03:18.403Z,7.95
2023-01-09T21:05:21.299Z,7.89
2023-01-09T21:07:24.843Z,8.03
2023-01-09T21:09:29.161Z,7.79
2023-01-09T21:11:32.154Z,8.00
2023-01-09T21:13:36.511Z,7.98
2023-01-09T21:15:39.791Z,7.99
2023-01-09T21:17:43.046Z,7.92
2023-01-09T21:19:46.207Z,8.02
2023-01-09T21:21:50.899Z,7.96
2023-01-09T21:23:56.446Z,7.92
2023-01-09T21:25:59.664Z,8.04
2023-01-09T21:28:02.689Z,7.91
2023-01-09T21:30:08.584Z,7.94
2023-01-09T21:32:11.532Z,8.03
2023-01-09T21:34:17.359Z,7.76
2023-01-09T21:36:20.397Z,7.84
2023-01-09T21:38:23.801Z,7.98
2023-01-09T21:40:26.733Z,7.90
2023-01-09T21:42:47.397Z,8.00
2023-01-09T21:45:07.728Z,7.97
2023-01-09T21:47:12.078Z,7.59
2023-01-09T21:49:15.052Z,7.52
2023-01-09T21:51:17.870Z,7.61
2023-01-09T21:53:20.761Z,7.78
2023-01-09T21:55:23.698Z,7.73
2023-01-09T21:57:26.628Z,7.82
2023-01-09T21:59:30.054Z,7.65
2023-01-09T22:01:32.932Z,7.83
2023-01-09T22:03:37.179Z,7.86
2023-01-09T22:05:40.034Z,7.97
2023-01-09T22:07:42.932Z,7.90
2023-01-09T22:09:45.979Z,7.94
2023-01-09T22:11:49.069Z,7.94
2023-01-09T22:13:52.413Z,7.87
2023-01-09T22:15:56.035Z,7.94
2023-01-09T22:17:58.914Z,7.88
2023-01-09T22:20:03.220Z,8.00
2023-01-09T22:22:08.375Z,7.88
2023-01-09T22:24:13.845Z,7.95
2023-01-09T22:26:17.704Z,7.70
2023-01-09T22:28:20.975Z,7.86
2023-01-09T22:30:23.802Z,7.96
2023-01-09T22:32:26.819Z,8.06
2023-01-09T22:34:29.759Z,7.96
2023-01-09T22:36:34.064Z,8.07
2023-01-09T22:38:37.084Z,7.92
2023-01-09T22:40:40.344Z,7.83
2023-01-09T22:42:43.232Z,7.82
2023-01-09T22:44:46.079Z,7.88
2023-01-09T22:46:48.877Z,7.86
2023-01-09T22:48:51.803Z,7.86
2023-01-09T22:50:54.661Z,7.98
2023-01-09T22:52:58.897Z,8.08
2023-01-09T22:55:02.169Z,7.89
2023-01-09T22:57:05.221Z,8.06
2023-01-09T22:59:08.223Z,8.06
2023-01-09T23:01:12.018Z,7.98
2023-01-09T23:03:14.803Z,7.99
2023-01-09T23:05:19.721Z,7.76
2023-01-09T23:07:22.632Z,7.69
2023-01-09T23:09:27.058Z,7.90
2023-01-09T23:11:49.270Z,7.97
2023-01-09T23:13:52.216Z,7.96
2023-01-09T23:15:55.754Z,8.03
2023-01-09T23:17:58.706Z,7.96
2023-01-09T23:20:01.573Z,8.08
2023-01-09T23:22:05.512Z,8.04
2023-01-09T23:24:09.019Z,8.02
2023-01-09T23:26:13.179Z,7.80
2023-01-09T23:31:53.773Z,7.80
2023-01-09T23:33:57.919Z,7.72
2023-01-09T23:36:00.724Z,7.81
2023-01-09T23:38:03.567Z,7.78
2023-01-09T23:40:07.323Z,7.84
2023-01-09T23:42:29.495Z,7.79
2023-01-09T23:44:33.045Z,7.78
2023-01-09T23:46:36.112Z,7.83
2023-01-09T23:48:38.973Z,7.97
2023-01-09T23:50:44.700Z,8.00
2023-01-09T23:52:47.914Z,7.73
2023-01-09T23:54:50.670Z,7.64
2023-01-09T23:56:56.294Z,7.76
2023-01-09T23:59:01.381Z,7.74
